sensor_id;sensor_type;location;lat;lon;timestamp;temperature;humidity
19561;DHT22;9927;47.792;10.616;2023-02-26T04:02:10;-1.80;99.90
19561;DHT22;9927;47.792;10.616;2023-02-26T04:04:52;-1.80;99.90
19561;DHT22;9927;47.792;10.616;2023-02-26T04:07:20;-1.80;99.90
19561;DHT22;9927;47.792;10.616;2023-02-26T04:09:50;-1.90;99.90
19561;DHT22;9927;47.792;10.616;2023-02-26T04:12:25;-1.80;99.90
19561;DHT22;9927;47.792;10.616;2023-02-26T04:14:54;-1.80;99.90
19561;DHT22;9927;47.792;10.616;2023-02-26T04:17:22;-1.80;99.90
19561;DHT22;9927;47.792;10.616;2023-02-26T04:19:49;-1.80;99.90
19561;DHT22;9927;47.792;10.616;2023-02-26T04:22:16;-1.80;99.90
19561;DHT22;9927;47.792;10.616;2023-02-26T04:24:43;-1.80;99.90
19561;DHT22;9927;47.792;10.616;2023-02-26T04:27:10;-1.90;99.90
19561;DHT22;9927;47.792;10.616;2023-02-26T04:29:38;-1.80;99.90
19561;DHT22;9927;47.792;10.616;2023-02-26T04:32:05;-1.90;99.90
19561;DHT22;9927;47.792;10.616;2023-02-26T04:34:33;-1.90;99.90
19561;DHT22;9927;47.792;10.616;2023-02-26T04:37:00;-1.90;99.90
19561;DHT22;9927;47.792;10.616;2023-02-26T04:39:27;-2.00;99.90
19561;DHT22;9927;47.792;10.616;2023-02-26T04:41:54;-2.00;99.90
19561;DHT22;9927;47.792;10.616;2023-02-26T04:44:21;-2.00;99.90
19561;DHT22;9927;47.792;10.616;2023-02-26T04:46:49;-2.00;99.90
19561;DHT22;9927;47.792;10.616;2023-02-26T04:49:16;-2.00;99.90
19561;DHT22;9927;47.792;10.616;2023-02-26T04:51:43;-2.00;99.90
19561;DHT22;9927;47.792;10.616;2023-02-26T04:54:10;-2.10;99.90
19561;DHT22;9927;47.792;10.616;2023-02-26T04:56:38;-2.10;99.90
19561;DHT22;9927;47.792;10.616;2023-02-26T04:59:05;-2.10;99.90
19561;DHT22;9927;47.792;10.616;2023-02-26T05:01:32;-2.10;99.90
19561;DHT22;9927;47.792;10.616;2023-02-26T05:03:59;-2.10;99.90
19561;DHT22;9927;47.792;10.616;2023-02-26T05:06:27;-2.10;99.90
19561;DHT22;9927;47.792;10.616;2023-02-26T05:08:54;-2.20;99.90
19561;DHT22;9927;47.792;10.616;2023-02-26T05:11:21;-2.20;99.90
19561;DHT22;9927;47.792;10.616;2023-02-26T05:13:48;-2.20;99.90
19561;DHT22;9927;47.792;10.616;2023-02-26T05:16:16;-2.20;99.90
19561;DHT22;9927;47.792;10.616;2023-02-26T05:18:43;-2.30;99.90
19561;DHT22;9927;47.792;10.616;2023-02-26T05:21:10;-2.30;99.90
19561;DHT22;9927;47.792;10.616;2023-02-26T05:23:38;-2.30;99.90
19561;DHT22;9927;47.792;10.616;2023-02-26T05:26:05;-2.40;99.90
19561;DHT22;9927;47.792;10.616;2023-02-26T05:28:32;-2.40;99.90
19561;DHT22;9927;47.792;10.616;2023-02-26T05:31:00;-2.40;99.90
19561;DHT22;9927;47.792;10.616;2023-02-26T05:33:27;-2.40;99.90
19561;DHT22;9927;47.792;10.616;2023-02-26T05:35:54;-2.50;99.90
19561;DHT22;9927;47.792;10.616;2023-02-26T05:38:23;-2.50;99.90
19561;DHT22;9927;47.792;10.616;2023-02-26T05:40:55;-2.50;99.90
19561;DHT22;9927;47.792;10.616;2023-02-26T05:43:22;-2.60;99.90
19561;DHT22;9927;47.792;10.616;2023-02-26T05:45:50;-2.50;99.90
19561;DHT22;9927;47.792;10.616;2023-02-26T05:48:17;-2.50;99.90
19561;DHT22;9927;47.792;10.616;2023-02-26T05:50:46;-2.50;99.90
19561;DHT22;9927;47.792;10.616;2023-02-26T05:53:14;-2.50;99.90
19561;DHT22;9927;47.792;10.616;2023-02-26T05:55:41;-2.50;99.90
19561;DHT22;9927;47.792;10.616;2023-02-26T05:58:09;-2.50;99.90
19561;DHT22;9927;47.792;10.616;2023-02-26T06:00:36;-2.60;99.90
19561;DHT22;9927;47.792;10.616;2023-02-26T06:03:03;-2.60;99.90
19561;DHT22;9927;47.792;10.616;2023-02-26T06:05:30;-2.60;99.90
19561;DHT22;9927;47.792;10.616;2023-02-26T06:07:58;-2.50;99.90
19561;DHT22;9927;47.792;10.616;2023-02-26T06:10:25;-2.40;99.90
19561;DHT22;9927;47.792;10.616;2023-02-26T06:12:52;-2.40;99.90
19561;DHT22;9927;47.792;10.616;2023-02-26T06:15:19;-2.40;99.90
19561;DHT22;9927;47.792;10.616;2023-02-26T06:17:47;-2.20;99.90
19561;DHT22;9927;47.792;10.616;2023-02-26T06:20:14;-2.20;99.90
19561;DHT22;9927;47.792;10.616;2023-02-26T06:22:41;-2.30;99.90
19561;DHT22;9927;47.792;10.616;2023-02-26T06:25:09;-2.20;99.90
19561;DHT22;9927;47.792;10.616;2023-02-26T06:27:36;-2.30;99.90
19561;DHT22;9927;47.792;10.616;2023-02-26T06:30:03;-2.30;99.90
19561;DHT22;9927;47.792;10.616;2023-02-26T06:32:31;-2.30;99.90
19561;DHT22;9927;47.792;10.616;2023-02-26T06:34:58;-2.30;99.90
19561;DHT22;9927;47.792;10.616;2023-02-26T06:37:25;-2.30;99.90
19561;DHT22;9927;47.792;10.616;2023-02-26T06:39:53;-2.30;99.90
19561;DHT22;9927;47.792;10.616;2023-02-26T06:42:20;-2.30;99.90
19561;DHT22;9927;47.792;10.616;2023-02-26T06:44:47;-2.30;99.90
19561;DHT22;9927;47.792;10.616;2023-02-26T06:47:14;-2.30;99.90
19561;DHT22;9927;47.792;10.616;2023-02-26T06:49:41;-2.20;99.90
19561;DHT22;9927;47.792;10.616;2023-02-26T06:52:08;-2.30;99.90
19561;DHT22;9927;47.792;10.616;2023-02-26T06:54:36;-2.20;99.90
19561;DHT22;9927;47.792;10.616;2023-02-26T06:57:03;-2.20;99.90
19561;DHT22;9927;47.792;10.616;2023-02-26T06:59:30;-2.30;99.90
19561;DHT22;9927;47.792;10.616;2023-02-26T07:01:57;-2.40;99.90
19561;DHT22;9927;47.792;10.616;2023-02-26T07:04:24;-2.50;99.90
19561;DHT22;9927;47.792;10.616;2023-02-26T07:06:52;-2.50;99.90
19561;DHT22;9927;47.792;10.616;2023-02-26T07:09:19;-2.50;99.90
19561;DHT22;9927;47.792;10.616;2023-02-26T07:11:46;-2.40;99.90
19561;DHT22;9927;47.792;10.616;2023-02-26T07:14:14;-2.40;99.90
19561;DHT22;9927;47.792;10.616;2023-02-26T07:16:41;-2.40;99.90
19561;DHT22;9927;47.792;10.616;2023-02-26T07:19:08;-2.50;99.90
19561;DHT22;9927;47.792;10.616;2023-02-26T07:21:35;-2.40;99.90
19561;DHT22;9927;47.792;10.616;2023-02-26T07:24:02;-2.50;99.90
19561;DHT22;9927;47.792;10.616;2023-02-26T07:26:30;-2.50;99.90
19561;DHT22;9927;47.792;10.616;2023-02-26T07:28:57;-2.50;99.90
19561;DHT22;9927;47.792;10.616;2023-02-26T07:31:24;-2.40;99.90
19561;DHT22;9927;47.792;10.616;2023-02-26T07:33:52;-2.40;99.90
19561;DHT22;9927;47.792;10.616;2023-02-26T07:36:19;-2.50;99.90
19561;DHT22;9927;47.792;10.616;2023-02-26T07:38:46;-2.40;99.90
19561;DHT22;9927;47.792;10.616;2023-02-26T07:41:13;-2.30;99.90
19561;DHT22;9927;47.792;10.616;2023-02-26T07:43:41;-2.40;99.90
19561;DHT22;9927;47.792;10.616;2023-02-26T07:46:08;-2.40;99.90
19561;DHT22;9927;47.792;10.616;2023-02-26T07:48:36;-2.30;99.90
19561;DHT22;9927;47.792;10.616;2023-02-26T07:51:03;-2.00;99.90
19561;DHT22;9927;47.792;10.616;2023-02-26T07:53:30;-1.90;99.90
19561;DHT22;9927;47.792;10.616;2023-02-26T07:56:01;-1.70;99.90
19561;DHT22;9927;47.792;10.616;2023-02-26T07:58:28;-1.70;99.90
19561;DHT22;9927;47.792;10.616;2023-02-26T08:00:57;-1.50;99.90
19561;DHT22;9927;47.792;10.616;2023-02-26T08:03:24;-1.40;99.90
19561;DHT22;9927;47.792;10.616;2023-02-26T08:05:51;-1.30;99.90
19561;DHT22;9927;47.792;10.616;2023-02-26T08:08:19;-1.10;99.90
19561;DHT22;9927;47.792;10.616;2023-02-26T08:10:46;-0.70;99.90
19561;DHT22;9927;47.792;10.616;2023-02-26T08:13:13;-0.70;99.90
19561;DHT22;9927;47.792;10.616;2023-02-26T08:15:40;-0.50;99.90
19561;DHT22;9927;47.792;10.616;2023-02-26T08:18:10;-0.70;99.90
19561;DHT22;9927;47.792;10.616;2023-02-26T08:20:38;-0.20;99.90
19561;DHT22;9927;47.792;10.616;2023-02-26T08:23:05;-0.20;99.90
19561;DHT22;9927;47.792;10.616;2023-02-26T08:25:34;-0.10;99.90
19561;DHT22;9927;47.792;10.616;2023-02-26T08:28:02;-0.30;99.90
19561;DHT22;9927;47.792;10.616;2023-02-26T08:30:29;-0.60;99.90
19561;DHT22;9927;47.792;10.616;2023-02-26T08:32:56;-0.60;99.90
19561;DHT22;9927;47.792;10.616;2023-02-26T08:35:24;-0.50;99.90
19561;DHT22;9927;47.792;10.616;2023-02-26T08:37:51;-0.70;99.90
19561;DHT22;9927;47.792;10.616;2023-02-26T08:40:19;-0.50;99.90
19561;DHT22;9927;47.792;10.616;2023-02-26T08:42:46;-0.20;99.90
19561;DHT22;9927;47.792;10.616;2023-02-26T08:45:14;-0.40;99.90
19561;DHT22;9927;47.792;10.616;2023-02-26T08:47:41;-0.40;99.90
19561;DHT22;9927;47.792;10.616;2023-02-26T08:50:23;-0.50;99.90
19561;DHT22;9927;47.792;10.616;2023-02-26T08:52:50;-0.50;99.90
19561;DHT22;9927;47.792;10.616;2023-02-26T08:55:18;-0.40;99.90
19561;DHT22;9927;47.792;10.616;2023-02-26T08:57:45;-0.20;99.90
19561;DHT22;9927;47.792;10.616;2023-02-26T09:00:13;-0.30;99.90
19561;DHT22;9927;47.792;10.616;2023-02-26T09:02:42;-0.50;99.90
19561;DHT22;9927;47.792;10.616;2023-02-26T09:05:10;-0.60;99.90
19561;DHT22;9927;47.792;10.616;2023-02-26T09:07:38;-0.70;99.90
19561;DHT22;9927;47.792;10.616;2023-02-26T09:10:06;-0.60;99.90
19561;DHT22;9927;47.792;10.616;2023-02-26T09:12:34;-0.30;99.90
19561;DHT22;9927;47.792;10.616;2023-02-26T09:15:05;-0.50;99.90
19561;DHT22;9927;47.792;10.616;2023-02-26T09:17:33;-0.50;99.90
19561;DHT22;9927;47.792;10.616;2023-02-26T09:20:01;-0.60;99.90
19561;DHT22;9927;47.792;10.616;2023-02-26T09:22:28;-0.50;99.90
19561;DHT22;9927;47.792;10.616;2023-02-26T09:24:55;-0.50;99.90
19561;DHT22;9927;47.792;10.616;2023-02-26T09:27:23;-0.30;99.90
19561;DHT22;9927;47.792;10.616;2023-02-26T09:29:51;-0.20;99.90
19561;DHT22;9927;47.792;10.616;2023-02-26T09:32:18;0.00;99.90
19561;DHT22;9927;47.792;10.616;2023-02-26T09:34:45;0.10;99.90
19561;DHT22;9927;47.792;10.616;2023-02-26T09:37:13;0.20;99.90
19561;DHT22;9927;47.792;10.616;2023-02-26T09:39:40;0.20;99.90
19561;DHT22;9927;47.792;10.616;2023-02-26T09:44:51;0.00;99.90
19561;DHT22;9927;47.792;10.616;2023-02-26T09:47:23;0.40;99.90
19561;DHT22;9927;47.792;10.616;2023-02-26T09:50:02;0.70;99.90
19561;DHT22;9927;47.792;10.616;2023-02-26T09:52:59;1.00;99.90
19561;DHT22;9927;47.792;10.616;2023-02-26T09:55:44;1.00;99.90
19561;DHT22;9927;47.792;10.616;2023-02-26T10:01:15;1.10;99.90
19561;DHT22;9927;47.792;10.616;2023-02-26T10:04:04;0.80;99.90
19561;DHT22;9927;47.792;10.616;2023-02-26T10:06:46;1.00;99.90
19561;DHT22;9927;47.792;10.616;2023-02-26T10:09:37;1.10;99.90
19561;DHT22;9927;47.792;10.616;2023-02-26T10:12:23;0.80;99.90
19561;DHT22;9927;47.792;10.616;2023-02-26T10:14:57;0.60;99.90
19561;DHT22;9927;47.792;10.616;2023-02-26T10:23:03;0.20;99.90
19561;DHT22;9927;47.792;10.616;2023-02-26T10:25:36;0.00;99.90
19561;DHT22;9927;47.792;10.616;2023-02-26T10:30:50;-0.30;99.90
19561;DHT22;9927;47.792;10.616;2023-02-26T10:36:50;-0.30;99.90
19561;DHT22;9927;47.792;10.616;2023-02-26T10:41:45;-0.30;99.90
19561;DHT22;9927;47.792;10.616;2023-02-26T10:44:19;-0.20;99.90
19561;DHT22;9927;47.792;10.616;2023-02-26T10:49:58;0.20;99.90
19561;DHT22;9927;47.792;10.616;2023-02-26T10:52:29;-0.10;99.90
19561;DHT22;9927;47.792;10.616;2023-02-26T10:58:04;1.00;99.90
19561;DHT22;9927;47.792;10.616;2023-02-26T11:00:34;2.00;99.90
19561;DHT22;9927;47.792;10.616;2023-02-26T11:03:04;2.00;99.90
19561;DHT22;9927;47.792;10.616;2023-02-26T11:05:33;2.20;99.90
19561;DHT22;9927;47.792;10.616;2023-02-26T11:08:04;2.30;99.90
19561;DHT22;9927;47.792;10.616;2023-02-26T11:10:47;1.20;99.90
19561;DHT22;9927;47.792;10.616;2023-02-26T11:13:16;1.10;99.90
19561;DHT22;9927;47.792;10.616;2023-02-26T11:15:47;0.80;99.90
19561;DHT22;9927;47.792;10.616;2023-02-26T11:18:37;0.80;99.90
19561;DHT22;9927;47.792;10.616;2023-02-26T11:21:06;0.70;99.90
19561;DHT22;9927;47.792;10.616;2023-02-26T11:23:34;0.60;99.90
19561;DHT22;9927;47.792;10.616;2023-02-26T11:26:06;0.60;99.90
19561;DHT22;9927;47.792;10.616;2023-02-26T11:28:41;0.60;99.90
19561;DHT22;9927;47.792;10.616;2023-02-26T11:31:11;0.90;99.90
19561;DHT22;9927;47.792;10.616;2023-02-26T11:33:51;1.20;99.90
19561;DHT22;9927;47.792;10.616;2023-02-26T11:36:23;1.10;99.90
19561;DHT22;9927;47.792;10.616;2023-02-26T11:38:56;1.00;99.90
19561;DHT22;9927;47.792;10.616;2023-02-26T11:41:24;1.40;99.90
19561;DHT22;9927;47.792;10.616;2023-02-26T11:44:27;1.70;99.90
19561;DHT22;9927;47.792;10.616;2023-02-26T11:47:02;1.90;99.90
19561;DHT22;9927;47.792;10.616;2023-02-26T11:49:30;1.90;99.90
19561;DHT22;9927;47.792;10.616;2023-02-26T11:52:05;1.80;99.90
19561;DHT22;9927;47.792;10.616;2023-02-26T11:54:44;1.60;99.90
19561;DHT22;9927;47.792;10.616;2023-02-26T11:57:26;1.30;99.90
19561;DHT22;9927;47.792;10.616;2023-02-26T11:59:57;1.50;99.90
19561;DHT22;9927;47.792;10.616;2023-02-26T12:02:26;1.60;99.90
19561;DHT22;9927;47.792;10.616;2023-02-26T12:05:00;1.70;99.90
19561;DHT22;9927;47.792;10.616;2023-02-26T12:07:29;1.70;99.90
19561;DHT22;9927;47.792;10.616;2023-02-26T12:09:57;1.70;99.90
19561;DHT22;9927;47.792;10.616;2023-02-26T12:15:18;1.50;99.90
19561;DHT22;9927;47.792;10.616;2023-02-26T12:26:15;1.80;99.90
19561;DHT22;9927;47.792;10.616;2023-02-26T12:29:26;1.40;99.90
19561;DHT22;9927;47.792;10.616;2023-02-26T12:35:16;1.50;99.90
19561;DHT22;9927;47.792;10.616;2023-02-26T12:37:58;1.70;99.90
19561;DHT22;9927;47.792;10.616;2023-02-26T12:59:40;1.30;99.90
19561;DHT22;9927;47.792;10.616;2023-02-26T13:08:26;1.30;99.90
19561;DHT22;9927;47.792;10.616;2023-02-26T13:16:30;0.70;99.90
19561;DHT22;9927;47.792;10.616;2023-02-26T13:21:43;1.20;99.90
19561;DHT22;9927;47.792;10.616;2023-02-26T13:24:35;1.60;99.90
19561;DHT22;9927;47.792;10.616;2023-02-26T13:27:05;2.10;99.90
19561;DHT22;9927;47.792;10.616;2023-02-26T13:29:43;1.70;99.90
19561;DHT22;9927;47.792;10.616;2023-02-26T13:32:24;1.90;99.90
19561;DHT22;9927;47.792;10.616;2023-02-26T13:35:15;2.00;99.90
19561;DHT22;9927;47.792;10.616;2023-02-26T13:37:50;2.30;99.90
19561;DHT22;9927;47.792;10.616;2023-02-26T13:40:40;2.40;99.90
19561;DHT22;9927;47.792;10.616;2023-02-26T13:44:33;2.70;99.90
19561;DHT22;9927;47.792;10.616;2023-02-26T13:49:30;2.50;99.90
19561;DHT22;9927;47.792;10.616;2023-02-26T13:52:02;2.60;99.90
19561;DHT22;9927;47.792;10.616;2023-02-26T13:54:42;2.80;99.90
19561;DHT22;9927;47.792;10.616;2023-02-26T13:57:23;2.40;99.90
19561;DHT22;9927;47.792;10.616;2023-02-26T14:02:52;1.70;99.90
19561;DHT22;9927;47.792;10.616;2023-02-26T14:14:11;1.50;99.90
19561;DHT22;9927;47.792;10.616;2023-02-26T14:16:40;1.50;99.90
19561;DHT22;9927;47.792;10.616;2023-02-26T14:21:51;1.70;99.90
19561;DHT22;9927;47.792;10.616;2023-02-26T14:24:34;2.00;99.90
19561;DHT22;9927;47.792;10.616;2023-02-26T14:27:30;1.70;99.90
19561;DHT22;9927;47.792;10.616;2023-02-26T14:30:03;1.60;99.90
19561;DHT22;9927;47.792;10.616;2023-02-26T14:33:05;1.60;99.90
19561;DHT22;9927;47.792;10.616;2023-02-26T14:35:39;1.40;99.90
19561;DHT22;9927;47.792;10.616;2023-02-26T14:38:29;1.30;99.90
19561;DHT22;9927;47.792;10.616;2023-02-26T14:41:04;1.30;99.90
19561;DHT22;9927;47.792;10.616;2023-02-26T14:43:42;1.40;99.90
19561;DHT22;9927;47.792;10.616;2023-02-26T14:46:10;1.20;99.90
19561;DHT22;9927;47.792;10.616;2023-02-26T14:48:38;0.90;99.90
19561;DHT22;9927;47.792;10.616;2023-02-26T14:54:21;0.70;99.90
19561;DHT22;9927;47.792;10.616;2023-02-26T14:56:57;0.90;99.90
19561;DHT22;9927;47.792;10.616;2023-02-26T15:10:23;0.70;99.90
19561;DHT22;9927;47.792;10.616;2023-02-26T15:15:45;0.60;99.90
19561;DHT22;9927;47.792;10.616;2023-02-26T15:18:21;0.50;99.90
19561;DHT22;9927;47.792;10.616;2023-02-26T15:21:11;0.70;99.90
19561;DHT22;9927;47.792;10.616;2023-02-26T15:23:46;0.80;99.90
19561;DHT22;9927;47.792;10.616;2023-02-26T15:26:22;0.90;99.90
19561;DHT22;9927;47.792;10.616;2023-02-26T15:28:52;0.80;99.90
19561;DHT22;9927;47.792;10.616;2023-02-26T15:31:27;1.00;99.90
19561;DHT22;9927;47.792;10.616;2023-02-26T15:33:57;1.00;99.90
19561;DHT22;9927;47.792;10.616;2023-02-26T15:36:24;1.00;99.90
19561;DHT22;9927;47.792;10.616;2023-02-26T15:39:01;0.80;99.90
19561;DHT22;9927;47.792;10.616;2023-02-26T15:41:33;0.50;99.90
19561;DHT22;9927;47.792;10.616;2023-02-26T15:44:06;0.50;99.90
19561;DHT22;9927;47.792;10.616;2023-02-26T15:46:40;0.30;99.90
19561;DHT22;9927;47.792;10.616;2023-02-26T15:49:19;0.30;99.90
19561;DHT22;9927;47.792;10.616;2023-02-26T15:51:50;0.20;99.90
19561;DHT22;9927;47.792;10.616;2023-02-26T15:54:22;0.20;99.90
19561;DHT22;9927;47.792;10.616;2023-02-26T15:56:50;0.10;99.90
19561;DHT22;9927;47.792;10.616;2023-02-26T15:59:21;0.00;99.90
19561;DHT22;9927;47.792;10.616;2023-02-26T16:01:49;-0.10;99.90
19561;DHT22;9927;47.792;10.616;2023-02-26T16:04:19;-0.10;99.90
19561;DHT22;9927;47.792;10.616;2023-02-26T16:06:53;-0.10;99.90
19561;DHT22;9927;47.792;10.616;2023-02-26T16:09:43;-0.10;99.90
19561;DHT22;9927;47.792;10.616;2023-02-26T16:12:39;0.00;99.90
19561;DHT22;9927;47.792;10.616;2023-02-26T16:15:20;0.00;99.90
19561;DHT22;9927;47.792;10.616;2023-02-26T16:17:52;-0.20;99.90
19561;DHT22;9927;47.792;10.616;2023-02-26T16:20:22;-0.10;99.90
19561;DHT22;9927;47.792;10.616;2023-02-26T16:23:01;-0.20;99.90
19561;DHT22;9927;47.792;10.616;2023-02-26T16:25:35;-0.40;99.90
19561;DHT22;9927;47.792;10.616;2023-02-26T16:28:11;-0.40;99.90
19561;DHT22;9927;47.792;10.616;2023-02-26T16:30:43;-0.30;99.90
19561;DHT22;9927;47.792;10.616;2023-02-26T16:33:13;-0.30;99.90
19561;DHT22;9927;47.792;10.616;2023-02-26T16:35:47;-0.20;99.90
19561;DHT22;9927;47.792;10.616;2023-02-26T16:38:24;-0.30;99.90
19561;DHT22;9927;47.792;10.616;2023-02-26T16:40:58;-0.50;99.90
19561;DHT22;9927;47.792;10.616;2023-02-26T16:43:33;-0.50;99.90
19561;DHT22;9927;47.792;10.616;2023-02-26T16:46:04;-0.50;99.90
19561;DHT22;9927;47.792;10.616;2023-02-26T16:48:37;-0.50;99.90
19561;DHT22;9927;47.792;10.616;2023-02-26T16:51:15;-0.50;99.90
19561;DHT22;9927;47.792;10.616;2023-02-26T16:53:56;-0.50;99.90
19561;DHT22;9927;47.792;10.616;2023-02-26T16:56:29;-0.70;99.90
19561;DHT22;9927;47.792;10.616;2023-02-26T16:59:20;-0.60;99.90
19561;DHT22;9927;47.792;10.616;2023-02-26T17:04:21;-0.70;99.90
19561;DHT22;9927;47.792;10.616;2023-02-26T17:06:50;-0.70;99.90
19561;DHT22;9927;47.792;10.616;2023-02-26T17:09:34;-0.90;99.90
19561;DHT22;9927;47.792;10.616;2023-02-26T17:12:16;-0.80;99.90
19561;DHT22;9927;47.792;10.616;2023-02-26T17:14:46;-0.90;99.90
19561;DHT22;9927;47.792;10.616;2023-02-26T17:17:14;-0.90;99.90
19561;DHT22;9927;47.792;10.616;2023-02-26T17:19:42;-0.80;99.90
19561;DHT22;9927;47.792;10.616;2023-02-26T17:22:15;-0.80;99.90
19561;DHT22;9927;47.792;10.616;2023-02-26T17:24:44;-0.80;99.90
19561;DHT22;9927;47.792;10.616;2023-02-26T17:27:27;-0.80;99.90
19561;DHT22;9927;47.792;10.616;2023-02-26T17:29:56;-0.80;99.90
19561;DHT22;9927;47.792;10.616;2023-02-26T17:32:25;-0.90;99.90
19561;DHT22;9927;47.792;10.616;2023-02-26T17:34:57;-0.90;99.90
19561;DHT22;9927;47.792;10.616;2023-02-26T17:37:30;-1.10;99.90
19561;DHT22;9927;47.792;10.616;2023-02-26T17:39:59;-1.10;99.90
19561;DHT22;9927;47.792;10.616;2023-02-26T17:42:26;-1.00;99.90
19561;DHT22;9927;47.792;10.616;2023-02-26T17:44:54;-1.00;99.90
19561;DHT22;9927;47.792;10.616;2023-02-26T17:47:24;-1.10;99.90
19561;DHT22;9927;47.792;10.616;2023-02-26T17:49:52;-1.20;99.90
19561;DHT22;9927;47.792;10.616;2023-02-26T17:52:20;-1.00;99.90
19561;DHT22;9927;47.792;10.616;2023-02-26T17:54:47;-1.10;99.90
19561;DHT22;9927;47.792;10.616;2023-02-26T17:57:19;-1.10;99.90
19561;DHT22;9927;47.792;10.616;2023-02-26T17:59:47;-1.00;99.90
19561;DHT22;9927;47.792;10.616;2023-02-26T18:02:17;-1.00;99.90
19561;DHT22;9927;47.792;10.616;2023-02-26T18:04:46;-1.00;99.90
19561;DHT22;9927;47.792;10.616;2023-02-26T18:07:15;-0.90;99.90
19561;DHT22;9927;47.792;10.616;2023-02-26T18:09:44;-0.90;99.90
19561;DHT22;9927;47.792;10.616;2023-02-26T18:12:16;-0.90;99.90
19561;DHT22;9927;47.792;10.616;2023-02-26T18:14:44;-0.80;99.90
19561;DHT22;9927;47.792;10.616;2023-02-26T18:17:13;-0.80;99.90
19561;DHT22;9927;47.792;10.616;2023-02-26T18:19:41;-0.80;99.90
19561;DHT22;9927;47.792;10.616;2023-02-26T18:22:12;-0.90;99.90
19561;DHT22;9927;47.792;10.616;2023-02-26T18:24:40;-0.90;99.90
19561;DHT22;9927;47.792;10.616;2023-02-26T18:27:13;-0.90;99.90
19561;DHT22;9927;47.792;10.616;2023-02-26T18:29:41;-0.80;99.90
19561;DHT22;9927;47.792;10.616;2023-02-26T18:32:17;-0.90;99.90
19561;DHT22;9927;47.792;10.616;2023-02-26T18:34:44;-0.90;99.90
19561;DHT22;9927;47.792;10.616;2023-02-26T18:37:18;-0.90;99.90
19561;DHT22;9927;47.792;10.616;2023-02-26T18:39:46;-0.80;99.90
19561;DHT22;9927;47.792;10.616;2023-02-26T18:42:24;-0.80;99.90
19561;DHT22;9927;47.792;10.616;2023-02-26T18:44:53;-0.80;99.90
19561;DHT22;9927;47.792;10.616;2023-02-26T18:47:21;-0.70;99.90
19561;DHT22;9927;47.792;10.616;2023-02-26T18:49:49;-0.70;99.90
19561;DHT22;9927;47.792;10.616;2023-02-26T18:52:17;-0.80;99.90
19561;DHT22;9927;47.792;10.616;2023-02-26T18:54:44;-0.80;99.90
19561;DHT22;9927;47.792;10.616;2023-02-26T18:57:12;-0.80;99.90
19561;DHT22;9927;47.792;10.616;2023-02-26T18:59:39;-0.80;99.90
19561;DHT22;9927;47.792;10.616;2023-02-26T19:02:09;-0.90;99.90
19561;DHT22;9927;47.792;10.616;2023-02-26T19:04:40;-0.90;99.90
19561;DHT22;9927;47.792;10.616;2023-02-26T19:07:08;-0.90;99.90
19561;DHT22;9927;47.792;10.616;2023-02-26T19:09:35;-0.90;99.90
19561;DHT22;9927;47.792;10.616;2023-02-26T19:12:03;-0.90;99.90
19561;DHT22;9927;47.792;10.616;2023-02-26T19:14:32;-0.90;99.90
19561;DHT22;9927;47.792;10.616;2023-02-26T19:16:59;-0.90;99.90
19561;DHT22;9927;47.792;10.616;2023-02-26T19:19:26;-0.90;99.90
19561;DHT22;9927;47.792;10.616;2023-02-26T19:21:54;-0.90;99.90
19561;DHT22;9927;47.792;10.616;2023-02-26T19:24:21;-0.90;99.90
19561;DHT22;9927;47.792;10.616;2023-02-26T19:26:49;-0.90;99.90
19561;DHT22;9927;47.792;10.616;2023-02-26T19:29:18;-0.80;99.90
19561;DHT22;9927;47.792;10.616;2023-02-26T19:31:45;-0.80;99.90
19561;DHT22;9927;47.792;10.616;2023-02-26T19:34:13;-0.90;99.90
19561;DHT22;9927;47.792;10.616;2023-02-26T19:36:41;-0.80;99.90
19561;DHT22;9927;47.792;10.616;2023-02-26T19:39:15;-0.80;99.90
19561;DHT22;9927;47.792;10.616;2023-02-26T19:41:43;-0.80;99.90
19561;DHT22;9927;47.792;10.616;2023-02-26T19:44:11;-0.90;99.90
19561;DHT22;9927;47.792;10.616;2023-02-26T19:46:38;-0.90;99.90
19561;DHT22;9927;47.792;10.616;2023-02-26T19:49:08;-0.90;99.90
19561;DHT22;9927;47.792;10.616;2023-02-26T19:51:38;-0.80;99.90
19561;DHT22;9927;47.792;10.616;2023-02-26T19:54:06;-0.90;99.90
19561;DHT22;9927;47.792;10.616;2023-02-26T19:56:33;-0.90;99.90
19561;DHT22;9927;47.792;10.616;2023-02-26T19:59:01;-0.90;99.90
19561;DHT22;9927;47.792;10.616;2023-02-26T20:01:28;-0.90;99.90
19561;DHT22;9927;47.792;10.616;2023-02-26T20:03:56;-0.90;99.90
19561;DHT22;9927;47.792;10.616;2023-02-26T20:06:23;-0.90;99.90
19561;DHT22;9927;47.792;10.616;2023-02-26T20:08:51;-0.90;99.90
19561;DHT22;9927;47.792;10.616;2023-02-26T20:11:18;-0.90;99.90
19561;DHT22;9927;47.792;10.616;2023-02-26T20:13:46;-0.90;99.90
19561;DHT22;9927;47.792;10.616;2023-02-26T20:16:13;-1.00;99.90
19561;DHT22;9927;47.792;10.616;2023-02-26T20:18:41;-1.00;99.90
19561;DHT22;9927;47.792;10.616;2023-02-26T20:21:11;-1.00;99.90
19561;DHT22;9927;47.792;10.616;2023-02-26T20:23:39;-1.00;99.90
19561;DHT22;9927;47.792;10.616;2023-02-26T20:26:09;-0.90;99.90
19561;DHT22;9927;47.792;10.616;2023-02-26T20:28:38;-0.90;99.90
19561;DHT22;9927;47.792;10.616;2023-02-26T20:31:05;-0.90;99.90
19561;DHT22;9927;47.792;10.616;2023-02-26T20:33:33;-1.00;99.90
19561;DHT22;9927;47.792;10.616;2023-02-26T20:36:03;-0.90;99.90
19561;DHT22;9927;47.792;10.616;2023-02-26T20:38:31;-1.00;99.90
19561;DHT22;9927;47.792;10.616;2023-02-26T20:40:58;-1.00;99.90
19561;DHT22;9927;47.792;10.616;2023-02-26T20:43:25;-1.00;99.90
19561;DHT22;9927;47.792;10.616;2023-02-26T20:45:52;-1.00;99.90
19561;DHT22;9927;47.792;10.616;2023-02-26T20:48:21;-1.00;99.90
19561;DHT22;9927;47.792;10.616;2023-02-26T20:50:49;-1.00;99.90
19561;DHT22;9927;47.792;10.616;2023-02-26T20:53:20;-1.00;99.90
19561;DHT22;9927;47.792;10.616;2023-02-26T20:55:47;-1.00;99.90
19561;DHT22;9927;47.792;10.616;2023-02-26T20:58:15;-0.90;99.90
19561;DHT22;9927;47.792;10.616;2023-02-26T21:00:44;-1.00;99.90
19561;DHT22;9927;47.792;10.616;2023-02-26T21:03:12;-1.00;99.90
19561;DHT22;9927;47.792;10.616;2023-02-26T21:05:39;-1.00;99.90
19561;DHT22;9927;47.792;10.616;2023-02-26T21:08:07;-1.00;99.90
19561;DHT22;9927;47.792;10.616;2023-02-26T21:10:36;-1.00;99.90
19561;DHT22;9927;47.792;10.616;2023-02-26T21:13:03;-1.00;99.90
19561;DHT22;9927;47.792;10.616;2023-02-26T21:15:30;-1.10;99.90
19561;DHT22;9927;47.792;10.616;2023-02-26T21:17:58;-1.10;99.90
19561;DHT22;9927;47.792;10.616;2023-02-26T21:20:25;-1.10;99.90
19561;DHT22;9927;47.792;10.616;2023-02-26T21:22:52;-1.00;99.90
19561;DHT22;9927;47.792;10.616;2023-02-26T21:25:20;-1.00;99.90
19561;DHT22;9927;47.792;10.616;2023-02-26T21:27:48;-1.10;99.90
19561;DHT22;9927;47.792;10.616;2023-02-26T21:30:16;-1.20;99.90
19561;DHT22;9927;47.792;10.616;2023-02-26T21:32:44;-1.20;99.90
19561;DHT22;9927;47.792;10.616;2023-02-26T21:35:11;-1.30;99.90
19561;DHT22;9927;47.792;10.616;2023-02-26T21:37:45;-1.20;99.90
19561;DHT22;9927;47.792;10.616;2023-02-26T21:40:13;-1.20;99.90
19561;DHT22;9927;47.792;10.616;2023-02-26T21:42:41;-1.10;99.90
19561;DHT22;9927;47.792;10.616;2023-02-26T21:45:09;-1.20;99.90
19561;DHT22;9927;47.792;10.616;2023-02-26T21:47:37;-1.20;99.90
19561;DHT22;9927;47.792;10.616;2023-02-26T21:50:05;-1.20;99.90